sensor_id;sensor_type;location;lat;lon;timestamp;temperature;humidity
15257;DHT22;7731;50.720;6.912;2023-08-24T00:00:51;19.40;99.90
15257;DHT22;7731;50.720;6.912;2023-08-24T00:03:22;19.50;99.90
15257;DHT22;7731;50.720;6.912;2023-08-24T00:05:53;19.60;99.90
15257;DHT22;7731;50.720;6.912;2023-08-24T00:08:24;19.60;99.90
15257;DHT22;7731;50.720;6.912;2023-08-24T00:10:58;19.50;99.90
15257;DHT22;7731;50.720;6.912;2023-08-24T00:13:28;19.50;99.90
15257;DHT22;7731;50.720;6.912;2023-08-24T00:15:59;19.50;99.90
15257;DHT22;7731;50.720;6.912;2023-08-24T00:18:31;19.50;99.90
15257;DHT22;7731;50.720;6.912;2023-08-24T00:21:02;19.40;99.90
15257;DHT22;7731;50.720;6.912;2023-08-24T00:23:35;19.30;99.90
15257;DHT22;7731;50.720;6.912;2023-08-24T00:26:08;19.20;99.90
15257;DHT22;7731;50.720;6.912;2023-08-24T00:28:39;19.20;99.90
15257;DHT22;7731;50.720;6.912;2023-08-24T00:31:11;19.10;99.90
15257;DHT22;7731;50.720;6.912;2023-08-24T00:33:42;19.10;99.90
15257;DHT22;7731;50.720;6.912;2023-08-24T00:36:13;19.00;99.90
15257;DHT22;7731;50.720;6.912;2023-08-24T00:38:45;19.10;99.90
15257;DHT22;7731;50.720;6.912;2023-08-24T00:41:21;19.10;99.90
15257;DHT22;7731;50.720;6.912;2023-08-24T00:43:53;19.10;99.90
15257;DHT22;7731;50.720;6.912;2023-08-24T00:46:26;19.10;99.90
15257;DHT22;7731;50.720;6.912;2023-08-24T00:48:57;19.10;99.90
15257;DHT22;7731;50.720;6.912;2023-08-24T00:51:28;19.20;99.90
15257;DHT22;7731;50.720;6.912;2023-08-24T00:53:59;19.30;99.90
15257;DHT22;7731;50.720;6.912;2023-08-24T00:56:33;19.30;99.90
15257;DHT22;7731;50.720;6.912;2023-08-24T00:59:04;19.20;99.90
15257;DHT22;7731;50.720;6.912;2023-08-24T01:01:35;19.10;99.90
15257;DHT22;7731;50.720;6.912;2023-08-24T01:04:07;19.00;99.90
15257;DHT22;7731;50.720;6.912;2023-08-24T01:06:38;19.00;99.90
15257;DHT22;7731;50.720;6.912;2023-08-24T01:09:09;18.90;99.90
15257;DHT22;7731;50.720;6.912;2023-08-24T01:11:49;18.80;99.90
15257;DHT22;7731;50.720;6.912;2023-08-24T01:14:34;18.80;99.90
15257;DHT22;7731;50.720;6.912;2023-08-24T01:17:14;18.80;99.90
15257;DHT22;7731;50.720;6.912;2023-08-24T01:19:48;19.00;99.90
15257;DHT22;7731;50.720;6.912;2023-08-24T01:22:32;19.10;99.90
15257;DHT22;7731;50.720;6.912;2023-08-24T01:25:13;19.00;99.90
15257;DHT22;7731;50.720;6.912;2023-08-24T01:27:49;19.10;99.90
15257;DHT22;7731;50.720;6.912;2023-08-24T01:30:22;19.20;99.90
15257;DHT22;7731;50.720;6.912;2023-08-24T01:32:53;19.10;99.90
15257;DHT22;7731;50.720;6.912;2023-08-24T01:35:24;19.00;99.90
15257;DHT22;7731;50.720;6.912;2023-08-24T01:37:55;19.00;99.90
15257;DHT22;7731;50.720;6.912;2023-08-24T01:40:36;18.90;99.90
15257;DHT22;7731;50.720;6.912;2023-08-24T01:43:20;18.90;99.90
15257;DHT22;7731;50.720;6.912;2023-08-24T01:46:12;18.70;99.90
15257;DHT22;7731;50.720;6.912;2023-08-24T01:48:46;18.60;99.90
15257;DHT22;7731;50.720;6.912;2023-08-24T01:51:18;18.70;99.90
15257;DHT22;7731;50.720;6.912;2023-08-24T01:53:49;18.80;99.90
15257;DHT22;7731;50.720;6.912;2023-08-24T01:56:21;18.80;99.90
15257;DHT22;7731;50.720;6.912;2023-08-24T01:58:55;18.80;99.90
15257;DHT22;7731;50.720;6.912;2023-08-24T02:01:25;18.80;99.90
15257;DHT22;7731;50.720;6.912;2023-08-24T02:03:56;18.80;99.90
15257;DHT22;7731;50.720;6.912;2023-08-24T02:06:27;18.80;99.90
15257;DHT22;7731;50.720;6.912;2023-08-24T02:08:58;18.90;99.90
15257;DHT22;7731;50.720;6.912;2023-08-24T02:11:28;18.80;99.90
15257;DHT22;7731;50.720;6.912;2023-08-24T02:14:01;18.80;99.90
15257;DHT22;7731;50.720;6.912;2023-08-24T02:16:32;18.90;99.90
15257;DHT22;7731;50.720;6.912;2023-08-24T02:19:03;18.90;99.90
15257;DHT22;7731;50.720;6.912;2023-08-24T02:21:35;19.00;99.90
15257;DHT22;7731;50.720;6.912;2023-08-24T02:24:07;19.00;99.90
15257;DHT22;7731;50.720;6.912;2023-08-24T02:26:38;19.00;99.90
15257;DHT22;7731;50.720;6.912;2023-08-24T02:29:11;19.00;99.90
15257;DHT22;7731;50.720;6.912;2023-08-24T02:31:42;19.00;99.90
15257;DHT22;7731;50.720;6.912;2023-08-24T02:34:13;19.00;99.90
15257;DHT22;7731;50.720;6.912;2023-08-24T02:36:44;19.10;99.90
15257;DHT22;7731;50.720;6.912;2023-08-24T02:39:15;19.20;99.90
15257;DHT22;7731;50.720;6.912;2023-08-24T02:41:46;19.30;99.90
15257;DHT22;7731;50.720;6.912;2023-08-24T02:44:19;19.30;99.90
15257;DHT22;7731;50.720;6.912;2023-08-24T02:46:50;19.20;99.90
15257;DHT22;7731;50.720;6.912;2023-08-24T02:49:21;19.20;99.90
15257;DHT22;7731;50.720;6.912;2023-08-24T02:51:52;19.10;99.90
15257;DHT22;7731;50.720;6.912;2023-08-24T02:54:23;19.40;99.90
15257;DHT22;7731;50.720;6.912;2023-08-24T02:56:54;19.70;14.60
15257;DHT22;7731;50.720;6.912;2023-08-24T02:59:27;19.70;1.00
15257;DHT22;7731;50.720;6.912;2023-08-24T03:01:58;19.70;1.00
15257;DHT22;7731;50.720;6.912;2023-08-24T03:04:30;19.80;1.00
15257;DHT22;7731;50.720;6.912;2023-08-24T03:07:01;19.80;1.00
15257;DHT22;7731;50.720;6.912;2023-08-24T03:09:34;19.60;47.80
15257;DHT22;7731;50.720;6.912;2023-08-24T03:12:06;19.40;99.90
15257;DHT22;7731;50.720;6.912;2023-08-24T03:14:40;19.40;63.30
15257;DHT22;7731;50.720;6.912;2023-08-24T03:17:10;19.50;1.00
15257;DHT22;7731;50.720;6.912;2023-08-24T03:19:41;19.70;1.00
15257;DHT22;7731;50.720;6.912;2023-08-24T03:22:12;19.90;1.00
15257;DHT22;7731;50.720;6.912;2023-08-24T03:24:43;20.00;99.90
15257;DHT22;7731;50.720;6.912;2023-08-24T03:27:14;20.10;99.90
15257;DHT22;7731;50.720;6.912;2023-08-24T03:29:47;19.90;99.90
15257;DHT22;7731;50.720;6.912;2023-08-24T03:32:18;19.80;1.00
15257;DHT22;7731;50.720;6.912;2023-08-24T03:34:49;19.80;1.00
15257;DHT22;7731;50.720;6.912;2023-08-24T03:37:20;20.00;1.00
15257;DHT22;7731;50.720;6.912;2023-08-24T03:39:51;20.10;1.00
15257;DHT22;7731;50.720;6.912;2023-08-24T03:42:22;19.90;1.00
15257;DHT22;7731;50.720;6.912;2023-08-24T03:44:55;19.60;1.00
15257;DHT22;7731;50.720;6.912;2023-08-24T03:47:26;19.50;1.00
15257;DHT22;7731;50.720;6.912;2023-08-24T03:49:57;19.40;34.80
15257;DHT22;7731;50.720;6.912;2023-08-24T03:52:28;19.20;92.00
15257;DHT22;7731;50.720;6.912;2023-08-24T03:54:59;19.10;99.90
15257;DHT22;7731;50.720;6.912;2023-08-24T03:57:30;19.10;99.90
15257;DHT22;7731;50.720;6.912;2023-08-24T04:00:05;19.10;99.90
15257;DHT22;7731;50.720;6.912;2023-08-24T04:02:38;19.10;99.90
15257;DHT22;7731;50.720;6.912;2023-08-24T04:05:09;19.10;99.90
15257;DHT22;7731;50.720;6.912;2023-08-24T04:07:40;19.20;99.90
15257;DHT22;7731;50.720;6.912;2023-08-24T04:10:11;19.10;99.90
15257;DHT22;7731;50.720;6.912;2023-08-24T04:12:42;19.00;99.90
15257;DHT22;7731;50.720;6.912;2023-08-24T04:15:15;18.90;99.90
15257;DHT22;7731;50.720;6.912;2023-08-24T04:17:46;19.00;99.90
15257;DHT22;7731;50.720;6.912;2023-08-24T04:20:18;19.10;99.90
15257;DHT22;7731;50.720;6.912;2023-08-24T04:22:49;19.20;99.90
15257;DHT22;7731;50.720;6.912;2023-08-24T04:25:20;19.20;99.90
15257;DHT22;7731;50.720;6.912;2023-08-24T04:27:51;19.20;99.90
15257;DHT22;7731;50.720;6.912;2023-08-24T04:30:25;19.10;99.90
15257;DHT22;7731;50.720;6.912;2023-08-24T04:32:55;19.20;99.90
15257;DHT22;7731;50.720;6.912;2023-08-24T04:35:27;19.20;99.90
15257;DHT22;7731;50.720;6.912;2023-08-24T04:37:57;19.20;99.90
15257;DHT22;7731;50.720;6.912;2023-08-24T04:40:28;19.20;99.90
15257;DHT22;7731;50.720;6.912;2023-08-24T04:42:59;19.30;99.90
15257;DHT22;7731;50.720;6.912;2023-08-24T04:45:33;19.40;99.90
15257;DHT22;7731;50.720;6.912;2023-08-24T04:48:18;19.50;99.90
15257;DHT22;7731;50.720;6.912;2023-08-24T04:51:31;19.60;99.90
15257;DHT22;7731;50.720;6.912;2023-08-24T04:54:02;19.40;99.90
15257;DHT22;7731;50.720;6.912;2023-08-24T04:56:33;19.40;99.90
15257;DHT22;7731;50.720;6.912;2023-08-24T04:59:04;19.40;99.90
15257;DHT22;7731;50.720;6.912;2023-08-24T05:01:37;19.30;99.90
15257;DHT22;7731;50.720;6.912;2023-08-24T05:04:08;19.20;99.90
15257;DHT22;7731;50.720;6.912;2023-08-24T05:06:39;19.00;99.90
15257;DHT22;7731;50.720;6.912;2023-08-24T05:09:10;18.80;99.90
15257;DHT22;7731;50.720;6.912;2023-08-24T05:11:41;18.80;99.90
15257;DHT22;7731;50.720;6.912;2023-08-24T05:14:13;18.80;99.90
15257;DHT22;7731;50.720;6.912;2023-08-24T05:16:47;18.80;99.90
15257;DHT22;7731;50.720;6.912;2023-08-24T05:19:17;18.80;99.90
15257;DHT22;7731;50.720;6.912;2023-08-24T05:21:48;18.90;99.90
15257;DHT22;7731;50.720;6.912;2023-08-24T05:24:19;18.90;99.90
15257;DHT22;7731;50.720;6.912;2023-08-24T05:26:50;18.90;99.90
15257;DHT22;7731;50.720;6.912;2023-08-24T05:29:20;19.00;99.90
15257;DHT22;7731;50.720;6.912;2023-08-24T05:31:54;19.10;99.90
15257;DHT22;7731;50.720;6.912;2023-08-24T05:34:25;19.10;99.90
15257;DHT22;7731;50.720;6.912;2023-08-24T05:36:56;19.20;99.90
15257;DHT22;7731;50.720;6.912;2023-08-24T05:39:26;19.20;99.90
15257;DHT22;7731;50.720;6.912;2023-08-24T05:41:57;19.30;99.90
15257;DHT22;7731;50.720;6.912;2023-08-24T05:44:28;19.40;99.90
15257;DHT22;7731;50.720;6.912;2023-08-24T05:47:01;19.50;99.90
15257;DHT22;7731;50.720;6.912;2023-08-24T05:49:32;19.60;99.90
15257;DHT22;7731;50.720;6.912;2023-08-24T05:52:04;19.70;99.90
15257;DHT22;7731;50.720;6.912;2023-08-24T05:54:36;19.90;99.90
15257;DHT22;7731;50.720;6.912;2023-08-24T05:57:07;20.10;99.90
15257;DHT22;7731;50.720;6.912;2023-08-24T05:59:37;20.20;99.90
15257;DHT22;7731;50.720;6.912;2023-08-24T06:02:11;20.20;99.90
15257;DHT22;7731;50.720;6.912;2023-08-24T06:04:41;20.20;99.90
15257;DHT22;7731;50.720;6.912;2023-08-24T06:07:12;20.20;97.80
15257;DHT22;7731;50.720;6.912;2023-08-24T06:09:43;20.30;99.90
15257;DHT22;7731;50.720;6.912;2023-08-24T06:12:14;20.40;99.90
15257;DHT22;7731;50.720;6.912;2023-08-24T06:14:45;20.50;99.90
15257;DHT22;7731;50.720;6.912;2023-08-24T06:17:21;20.60;99.90
15257;DHT22;7731;50.720;6.912;2023-08-24T06:19:52;20.70;99.90
15257;DHT22;7731;50.720;6.912;2023-08-24T06:22:22;20.70;1.00
15257;DHT22;7731;50.720;6.912;2023-08-24T06:24:53;20.70;70.70
15257;DHT22;7731;50.720;6.912;2023-08-24T06:27:27;20.80;94.20
15257;DHT22;7731;50.720;6.912;2023-08-24T06:29:58;21.00;8.70
15257;DHT22;7731;50.720;6.912;2023-08-24T06:32:31;21.20;1.00
15257;DHT22;7731;50.720;6.912;2023-08-24T06:35:02;21.30;1.00
15257;DHT22;7731;50.720;6.912;2023-08-24T06:37:33;21.40;1.00
15257;DHT22;7731;50.720;6.912;2023-08-24T06:40:05;21.60;1.00
15257;DHT22;7731;50.720;6.912;2023-08-24T06:42:41;22.00;1.00
15257;DHT22;7731;50.720;6.912;2023-08-24T06:45:20;22.50;99.90
15257;DHT22;7731;50.720;6.912;2023-08-24T06:47:53;24.10;1.00
15257;DHT22;7731;50.720;6.912;2023-08-24T06:50:24;26.00;1.00
15257;DHT22;7731;50.720;6.912;2023-08-24T06:52:55;27.30;1.00
15257;DHT22;7731;50.720;6.912;2023-08-24T06:55:27;27.90;1.00
15257;DHT22;7731;50.720;6.912;2023-08-24T06:57:57;27.90;1.00
15257;DHT22;7731;50.720;6.912;2023-08-24T07:00:29;28.40;1.00
15257;DHT22;7731;50.720;6.912;2023-08-24T07:03:03;28.70;1.00
15257;DHT22;7731;50.720;6.912;2023-08-24T07:05:34;29.00;1.00
15257;DHT22;7731;50.720;6.912;2023-08-24T07:08:05;29.60;1.00
15257;DHT22;7731;50.720;6.912;2023-08-24T07:10:36;30.10;1.00
15257;DHT22;7731;50.720;6.912;2023-08-24T07:13:10;30.30;1.00
15257;DHT22;7731;50.720;6.912;2023-08-24T07:15:41;30.80;99.90
15257;DHT22;7731;50.720;6.912;2023-08-24T07:18:15;31.20;99.90
15257;DHT22;7731;50.720;6.912;2023-08-24T07:20:46;32.10;99.90
15257;DHT22;7731;50.720;6.912;2023-08-24T07:23:17;32.80;99.90
15257;DHT22;7731;50.720;6.912;2023-08-24T07:25:47;33.70;99.90
15257;DHT22;7731;50.720;6.912;2023-08-24T07:28:18;34.70;99.90
15257;DHT22;7731;50.720;6.912;2023-08-24T07:30:49;34.70;99.90
15257;DHT22;7731;50.720;6.912;2023-08-24T07:33:26;34.40;99.90
15257;DHT22;7731;50.720;6.912;2023-08-24T07:35:56;34.30;99.90
15257;DHT22;7731;50.720;6.912;2023-08-24T07:38:31;34.00;99.90
15257;DHT22;7731;50.720;6.912;2023-08-24T07:41:02;33.90;1.00
15257;DHT22;7731;50.720;6.912;2023-08-24T07:43:34;33.40;1.00
15257;DHT22;7731;50.720;6.912;2023-08-24T07:46:05;34.30;99.90
15257;DHT22;7731;50.720;6.912;2023-08-24T07:48:39;34.40;99.90
15257;DHT22;7731;50.720;6.912;2023-08-24T07:51:10;35.10;99.90
15257;DHT22;7731;50.720;6.912;2023-08-24T07:53:41;35.10;1.00
15257;DHT22;7731;50.720;6.912;2023-08-24T07:56:11;34.90;1.00
15257;DHT22;7731;50.720;6.912;2023-08-24T07:58:42;35.50;1.00
15257;DHT22;7731;50.720;6.912;2023-08-24T08:01:13;36.00;1.00
15257;DHT22;7731;50.720;6.912;2023-08-24T08:03:46;35.30;1.00
15257;DHT22;7731;50.720;6.912;2023-08-24T08:06:18;35.90;1.00
15257;DHT22;7731;50.720;6.912;2023-08-24T08:08:49;36.10;1.00
15257;DHT22;7731;50.720;6.912;2023-08-24T08:11:20;37.10;1.00
15257;DHT22;7731;50.720;6.912;2023-08-24T08:13:51;36.80;1.00
15257;DHT22;7731;50.720;6.912;2023-08-24T08:16:22;36.70;1.00
15257;DHT22;7731;50.720;6.912;2023-08-24T08:18:55;37.30;1.00
15257;DHT22;7731;50.720;6.912;2023-08-24T08:21:26;37.80;1.00
15257;DHT22;7731;50.720;6.912;2023-08-24T08:23:58;37.60;1.00
15257;DHT22;7731;50.720;6.912;2023-08-24T08:26:28;37.60;1.00
15257;DHT22;7731;50.720;6.912;2023-08-24T08:28:59;38.00;1.00
15257;DHT22;7731;50.720;6.912;2023-08-24T08:31:30;37.50;1.00
15257;DHT22;7731;50.720;6.912;2023-08-24T08:34:03;37.90;1.00
15257;DHT22;7731;50.720;6.912;2023-08-24T08:36:34;39.10;1.00
15257;DHT22;7731;50.720;6.912;2023-08-24T08:39:05;38.80;1.00
15257;DHT22;7731;50.720;6.912;2023-08-24T08:41:43;38.90;1.00
15257;DHT22;7731;50.720;6.912;2023-08-24T08:44:14;38.40;1.00
15257;DHT22;7731;50.720;6.912;2023-08-24T08:46:46;37.50;1.00
15257;DHT22;7731;50.720;6.912;2023-08-24T08:49:22;37.20;1.00
15257;DHT22;7731;50.720;6.912;2023-08-24T08:51:53;37.60;1.00
15257;DHT22;7731;50.720;6.912;2023-08-24T08:54:24;38.20;1.00
15257;DHT22;7731;50.720;6.912;2023-08-24T08:56:55;38.70;1.00
15257;DHT22;7731;50.720;6.912;2023-08-24T08:59:27;37.80;1.00
15257;DHT22;7731;50.720;6.912;2023-08-24T09:02:01;37.70;1.00
15257;DHT22;7731;50.720;6.912;2023-08-24T09:04:36;38.30;1.00
15257;DHT22;7731;50.720;6.912;2023-08-24T09:07:08;37.40;1.00
15257;DHT22;7731;50.720;6.912;2023-08-24T09:09:40;37.00;1.00
15257;DHT22;7731;50.720;6.912;2023-08-24T09:12:11;37.10;1.00
15257;DHT22;7731;50.720;6.912;2023-08-24T09:14:42;37.80;1.00
15257;DHT22;7731;50.720;6.912;2023-08-24T09:17:20;37.00;1.00
15257;DHT22;7731;50.720;6.912;2023-08-24T09:19:58;36.70;1.00
15257;DHT22;7731;50.720;6.912;2023-08-24T09:22:35;35.20;1.00
15257;DHT22;7731;50.720;6.912;2023-08-24T09:25:10;35.80;1.00
15257;DHT22;7731;50.720;6.912;2023-08-24T09:27:41;35.20;1.00
15257;DHT22;7731;50.720;6.912;2023-08-24T09:30:12;34.80;1.00
15257;DHT22;7731;50.720;6.912;2023-08-24T09:32:43;34.50;1.00
15257;DHT22;7731;50.720;6.912;2023-08-24T09:35:16;34.60;1.00
15257;DHT22;7731;50.720;6.912;2023-08-24T09:37:51;34.20;1.00
15257;DHT22;7731;50.720;6.912;2023-08-24T09:40:24;34.90;1.00
15257;DHT22;7731;50.720;6.912;2023-08-24T09:42:55;35.60;1.00
15257;DHT22;7731;50.720;6.912;2023-08-24T09:45:26;36.00;1.00
15257;DHT22;7731;50.720;6.912;2023-08-24T09:48:00;35.60;1.00
15257;DHT22;7731;50.720;6.912;2023-08-24T09:50:34;35.70;1.00
15257;DHT22;7731;50.720;6.912;2023-08-24T09:53:05;36.20;1.00
15257;DHT22;7731;50.720;6.912;2023-08-24T09:55:37;36.50;1.00
15257;DHT22;7731;50.720;6.912;2023-08-24T09:58:11;36.40;1.00
15257;DHT22;7731;50.720;6.912;2023-08-24T10:00:42;35.20;1.00
15257;DHT22;7731;50.720;6.912;2023-08-24T10:03:17;33.70;1.00
15257;DHT22;7731;50.720;6.912;2023-08-24T10:05:54;33.10;1.00
15257;DHT22;7731;50.720;6.912;2023-08-24T10:08:36;32.20;1.00
15257;DHT22;7731;50.720;6.912;2023-08-24T10:11:10;31.30;1.00
15257;DHT22;7731;50.720;6.912;2023-08-24T10:13:47;31.30;1.00
15257;DHT22;7731;50.720;6.912;2023-08-24T10:16:23;31.30;1.00
15257;DHT22;7731;50.720;6.912;2023-08-24T10:18:57;31.30;1.00
15257;DHT22;7731;50.720;6.912;2023-08-24T10:21:32;30.90;1.00
15257;DHT22;7731;50.720;6.912;2023-08-24T10:24:04;30.60;1.00
15257;DHT22;7731;50.720;6.912;2023-08-24T10:26:36;30.50;1.00
15257;DHT22;7731;50.720;6.912;2023-08-24T10:29:10;30.40;1.00
15257;DHT22;7731;50.720;6.912;2023-08-24T10:31:41;30.70;1.00
15257;DHT22;7731;50.720;6.912;2023-08-24T10:34:14;30.90;1.00
15257;DHT22;7731;50.720;6.912;2023-08-24T10:36:47;30.80;1.00
15257;DHT22;7731;50.720;6.912;2023-08-24T10:39:27;30.70;1.00
15257;DHT22;7731;50.720;6.912;2023-08-24T10:42:01;30.70;1.00
15257;DHT22;7731;50.720;6.912;2023-08-24T10:44:34;30.90;1.00
15257;DHT22;7731;50.720;6.912;2023-08-24T10:47:08;31.10;1.00
15257;DHT22;7731;50.720;6.912;2023-08-24T10:49:43;31.10;1.00
15257;DHT22;7731;50.720;6.912;2023-08-24T10:52:22;31.40;1.00
15257;DHT22;7731;50.720;6.912;2023-08-24T10:54:54;31.70;1.00
15257;DHT22;7731;50.720;6.912;2023-08-24T10:57:27;31.80;1.00
15257;DHT22;7731;50.720;6.912;2023-08-24T11:00:08;31.80;1.00
15257;DHT22;7731;50.720;6.912;2023-08-24T11:02:45;31.50;1.00
15257;DHT22;7731;50.720;6.912;2023-08-24T11:05:19;31.20;1.00
15257;DHT22;7731;50.720;6.912;2023-08-24T11:07:56;30.80;1.00
15257;DHT22;7731;50.720;6.912;2023-08-24T11:10:34;30.40;1.00
15257;DHT22;7731;50.720;6.912;2023-08-24T11:13:18;30.30;1.00
15257;DHT22;7731;50.720;6.912;2023-08-24T11:15:50;30.50;1.00
15257;DHT22;7731;50.720;6.912;2023-08-24T11:18:27;30.40;1.00
15257;DHT22;7731;50.720;6.912;2023-08-24T11:21:01;30.70;1.00
15257;DHT22;7731;50.720;6.912;2023-08-24T11:23:35;30.90;1.00
15257;DHT22;7731;50.720;6.912;2023-08-24T11:26:07;31.00;1.00
15257;DHT22;7731;50.720;6.912;2023-08-24T11:28:38;31.00;1.00
15257;DHT22;7731;50.720;6.912;2023-08-24T11:31:09;31.10;1.00
15257;DHT22;7731;50.720;6.912;2023-08-24T11:33:41;31.10;1.00
15257;DHT22;7731;50.720;6.912;2023-08-24T11:36:12;31.20;1.00
15257;DHT22;7731;50.720;6.912;2023-08-24T11:38:46;31.30;1.00
15257;DHT22;7731;50.720;6.912;2023-08-24T11:41:17;31.50;1.00
15257;DHT22;7731;50.720;6.912;2023-08-24T11:43:53;31.50;1.00
15257;DHT22;7731;50.720;6.912;2023-08-24T11:46:45;31.50;1.00
15257;DHT22;7731;50.720;6.912;2023-08-24T11:49:16;31.20;1.00
15257;DHT22;7731;50.720;6.912;2023-08-24T11:51:48;30.80;1.00
15257;DHT22;7731;50.720;6.912;2023-08-24T11:54:23;30.40;1.00
15257;DHT22;7731;50.720;6.912;2023-08-24T11:56:54;30.20;1.00
15257;DHT22;7731;50.720;6.912;2023-08-24T11:59:25;29.90;1.00
15257;DHT22;7731;50.720;6.912;2023-08-24T12:01:57;29.80;1.00
15257;DHT22;7731;50.720;6.912;2023-08-24T12:04:38;29.80;1.00
15257;DHT22;7731;50.720;6.912;2023-08-24T12:07:10;29.80;1.00
15257;DHT22;7731;50.720;6.912;2023-08-24T12:09:45;29.80;1.00
15257;DHT22;7731;50.720;6.912;2023-08-24T12:12:20;29.80;1.00
15257;DHT22;7731;50.720;6.912;2023-08-24T12:14:51;29.60;1.00
15257;DHT22;7731;50.720;6.912;2023-08-24T12:17:22;29.50;1.00
15257;DHT22;7731;50.720;6.912;2023-08-24T12:19:58;29.30;1.00
15257;DHT22;7731;50.720;6.912;2023-08-24T12:22:34;29.00;1.00
15257;DHT22;7731;50.720;6.912;2023-08-24T12:25:08;28.80;1.00
15257;DHT22;7731;50.720;6.912;2023-08-24T12:27:39;28.50;1.00
15257;DHT22;7731;50.720;6.912;2023-08-24T12:30:11;28.20;1.00
15257;DHT22;7731;50.720;6.912;2023-08-24T12:32:42;27.90;12.30
15257;DHT22;7731;50.720;6.912;2023-08-24T12:35:13;27.60;1.00
15257;DHT22;7731;50.720;6.912;2023-08-24T12:37:45;27.20;1.00
15257;DHT22;7731;50.720;6.912;2023-08-24T12:40:18;26.80;99.90
15257;DHT22;7731;50.720;6.912;2023-08-24T12:42:51;26.50;1.00
15257;DHT22;7731;50.720;6.912;2023-08-24T12:45:22;26.20;99.90
15257;DHT22;7731;50.720;6.912;2023-08-24T12:47:53;26.10;99.90
15257;DHT22;7731;50.720;6.912;2023-08-24T12:50:24;26.20;99.90
15257;DHT22;7731;50.720;6.912;2023-08-24T12:52:55;26.10;1.00
15257;DHT22;7731;50.720;6.912;2023-08-24T12:55:30;26.00;32.00
15257;DHT22;7731;50.720;6.912;2023-08-24T12:58:00;26.00;99.90
15257;DHT22;7731;50.720;6.912;2023-08-24T13:00:32;25.90;99.90
15257;DHT22;7731;50.720;6.912;2023-08-24T13:03:03;25.80;99.90
15257;DHT22;7731;50.720;6.912;2023-08-24T13:05:35;25.60;1.00
15257;DHT22;7731;50.720;6.912;2023-08-24T13:08:06;25.40;1.00
15257;DHT22;7731;50.720;6.912;2023-08-24T13:10:39;25.40;1.00
15257;DHT22;7731;50.720;6.912;2023-08-24T13:13:10;25.20;99.90
15257;DHT22;7731;50.720;6.912;2023-08-24T13:15:41;25.20;32.00
15257;DHT22;7731;50.720;6.912;2023-08-24T13:18:11;25.20;1.00
15257;DHT22;7731;50.720;6.912;2023-08-24T13:20:42;25.10;99.90
15257;DHT22;7731;50.720;6.912;2023-08-24T13:23:13;25.10;99.90
15257;DHT22;7731;50.720;6.912;2023-08-24T13:25:46;25.00;1.00
15257;DHT22;7731;50.720;6.912;2023-08-24T13:28:17;24.90;99.90
15257;DHT22;7731;50.720;6.912;2023-08-24T13:30:48;24.90;99.90
15257;DHT22;7731;50.720;6.912;2023-08-24T13:33:19;24.80;99.90
15257;DHT22;7731;50.720;6.912;2023-08-24T13:35:49;24.90;1.00
15257;DHT22;7731;50.720;6.912;2023-08-24T13:38:20;25.00;99.90
15257;DHT22;7731;50.720;6.912;2023-08-24T13:40:54;25.10;99.90
15257;DHT22;7731;50.720;6.912;2023-08-24T13:43:24;25.10;1.00
15257;DHT22;7731;50.720;6.912;2023-08-24T13:45:55;25.00;99.90
15257;DHT22;7731;50.720;6.912;2023-08-24T13:48:30;24.90;99.90
15257;DHT22;7731;50.720;6.912;2023-08-24T13:51:02;25.00;99.90
15257;DHT22;7731;50.720;6.912;2023-08-24T13:53:33;25.20;38.50
15257;DHT22;7731;50.720;6.912;2023-08-24T13:56:06;25.00;1.00
15257;DHT22;7731;50.720;6.912;2023-08-24T13:58:37;25.00;99.90
15257;DHT22;7731;50.720;6.912;2023-08-24T14:01:08;25.10;1.00
15257;DHT22;7731;50.720;6.912;2023-08-24T14:03:40;25.20;99.90
15257;DHT22;7731;50.720;6.912;2023-08-24T14:06:11;25.30;5.50
15257;DHT22;7731;50.720;6.912;2023-08-24T14:08:42;25.30;1.00
15257;DHT22;7731;50.720;6.912;2023-08-24T14:11:16;25.20;99.90
15257;DHT22;7731;50.720;6.912;2023-08-24T14:13:46;25.10;99.90
15257;DHT22;7731;50.720;6.912;2023-08-24T14:16:17;25.00;99.90
15257;DHT22;7731;50.720;6.912;2023-08-24T14:18:48;24.90;1.00
15257;DHT22;7731;50.720;6.912;2023-08-24T14:21:19;24.80;1.00
15257;DHT22;7731;50.720;6.912;2023-08-24T14:24:10;24.60;1.00
15257;DHT22;7731;50.720;6.912;2023-08-24T14:26:44;24.70;1.00
15257;DHT22;7731;50.720;6.912;2023-08-24T14:29:16;24.80;1.00
15257;DHT22;7731;50.720;6.912;2023-08-24T14:31:46;24.80;1.00
15257;DHT22;7731;50.720;6.912;2023-08-24T14:34:17;24.70;1.00
15257;DHT22;7731;50.720;6.912;2023-08-24T14:36:48;24.70;1.00
15257;DHT22;7731;50.720;6.912;2023-08-24T14:39:19;24.60;1.00
15257;DHT22;7731;50.720;6.912;2023-08-24T14:41:53;24.50;1.00
15257;DHT22;7731;50.720;6.912;2023-08-24T14:44:24;24.30;1.00
15257;DHT22;7731;50.720;6.912;2023-08-24T14:46:55;24.10;49.30
15257;DHT22;7731;50.720;6.912;2023-08-24T14:49:26;24.10;1.00
15257;DHT22;7731;50.720;6.912;2023-08-24T14:51:56;24.20;24.70
15257;DHT22;7731;50.720;6.912;2023-08-24T14:54:27;24.10;1.00
15257;DHT22;7731;50.720;6.912;2023-08-24T14:57:01;24.10;1.00
15257;DHT22;7731;50.720;6.912;2023-08-24T14:59:33;24.00;23.20
15257;DHT22;7731;50.720;6.912;2023-08-24T15:02:06;23.70;99.90
15257;DHT22;7731;50.720;6.912;2023-08-24T15:04:37;23.60;99.90
15257;DHT22;7731;50.720;6.912;2023-08-24T15:07:07;23.40;99.90
15257;DHT22;7731;50.720;6.912;2023-08-24T15:09:38;23.30;99.90
15257;DHT22;7731;50.720;6.912;2023-08-24T15:12:12;23.40;99.90
15257;DHT22;7731;50.720;6.912;2023-08-24T15:14:56;23.50;99.90
15257;DHT22;7731;50.720;6.912;2023-08-24T15:17:30;23.50;99.90
15257;DHT22;7731;50.720;6.912;2023-08-24T15:20:04;23.40;99.90
15257;DHT22;7731;50.720;6.912;2023-08-24T15:22:35;23.30;99.90
15257;DHT22;7731;50.720;6.912;2023-08-24T15:25:07;23.20;99.90
15257;DHT22;7731;50.720;6.912;2023-08-24T15:27:41;23.10;99.90
15257;DHT22;7731;50.720;6.912;2023-08-24T15:30:12;23.00;99.90
15257;DHT22;7731;50.720;6.912;2023-08-24T15:32:43;23.00;99.90
15257;DHT22;7731;50.720;6.912;2023-08-24T15:35:14;23.10;99.90
15257;DHT22;7731;50.720;6.912;2023-08-24T15:37:45;23.00;99.90
15257;DHT22;7731;50.720;6.912;2023-08-24T15:40:16;23.00;99.90
15257;DHT22;7731;50.720;6.912;2023-08-24T15:42:49;23.00;99.90
15257;DHT22;7731;50.720;6.912;2023-08-24T15:45:20;22.90;99.90
15257;DHT22;7731;50.720;6.912;2023-08-24T15:47:51;22.90;99.90
15257;DHT22;7731;50.720;6.912;2023-08-24T15:50:23;22.80;99.90
15257;DHT22;7731;50.720;6.912;2023-08-24T15:52:54;22.70;99.90
15257;DHT22;7731;50.720;6.912;2023-08-24T15:55:29;22.60;99.90
15257;DHT22;7731;50.720;6.912;2023-08-24T15:58:03;22.60;99.90
15257;DHT22;7731;50.720;6.912;2023-08-24T16:00:34;22.40;99.90
15257;DHT22;7731;50.720;6.912;2023-08-24T16:03:05;22.40;99.90
15257;DHT22;7731;50.720;6.912;2023-08-24T16:05:36;22.30;99.90
15257;DHT22;7731;50.720;6.912;2023-08-24T16:08:07;22.30;99.90
15257;DHT22;7731;50.720;6.912;2023-08-24T16:10:38;22.30;99.90
15257;DHT22;7731;50.720;6.912;2023-08-24T16:13:12;22.20;99.90
15257;DHT22;7731;50.720;6.912;2023-08-24T16:15:43;22.30;99.90
15257;DHT22;7731;50.720;6.912;2023-08-24T16:18:13;22.20;99.90
15257;DHT22;7731;50.720;6.912;2023-08-24T16:20:45;22.30;99.90
15257;DHT22;7731;50.720;6.912;2023-08-24T16:23:16;22.30;99.90
15257;DHT22;7731;50.720;6.912;2023-08-24T16:25:48;22.40;99.90